Jauja, Jauja Francisco Carle Airport (SPJJ)

NameJauja Francisco Carle Airport
CityJauja
CountryPeru
ICAOSPJJ
IATAJAU
Altitude3363 m
CoordinatesGoogle Map
Live Air TrafficLiveATC.net
METARSPJJ 222105Z 26015KT 9999 +TSRA SCT030CB BKN080 10/08 Q1028
2020-01-22 21:05:00 Wind: West-Southwest (260°) 7.72 m/s - Visibility: > 10000 m - Weather: Heavy Thunderstorm Rain - Temperature: 10 °C - Dew point: 8 °C - Humidity: 87.5% - Pressure: 1028 hPa

Sorry, no flights used the airport in this database.